Time;durP1;ratioP1;P1;durP2;ratioP2;P2;SDS_P1;SDS_P2;PMS_P1;PMS_P2;Temp;Humidity;BMP_temperature;BMP_pressure;BME280_temperature;BME280_humidity;BME280_pressure;Samples;Min_cycle;Max_cycle;Signal;HPM_P1;HPM_P2
2021/12/15 00:01:21;;;;;;;48.38;27.27;;;;;;;1.78;88.81;98444.66;10378144;28;20076;-58
2021/12/15 00:06:20;;;;;;;49.72;28.65;;;;;;;1.84;88.68;98439.84;10377022;28;20061;-58
2021/12/15 00:11:20;;;;;;;;;;;;;;;1.89;88.63;98444.34;10378012;28;20118;-58
2021/12/15 00:16:19;;;;;;;49.28;28.20;;;;;;;1.99;88.67;98444.75;10377986;28;19948;-58
2021/12/15 00:21:20;;;;;;;53.67;29.58;;;;;;;2.06;88.13;98446.75;10376868;28;20308;-58
2021/12/15 00:26:19;;;;;;;51.75;29.65;;;;;;;2.05;87.80;98451.00;10377160;28;20507;-58
2021/12/15 00:31:19;;;;;;;72.63;41.63;;;;;;;1.92;87.44;98451.28;10376797;28;20071;-58
2021/12/15 00:36:18;;;;;;;116.72;59.97;;;;;;;1.77;87.66;98453.16;10376486;28;20063;-58
2021/12/15 00:41:17;;;;;;;61.67;33.05;;;;;;;1.84;87.79;98447.50;10376425;28;20172;-58
2021/12/15 00:46:17;;;;;;;59.63;32.55;;;;;;;1.87;87.82;98435.72;10375841;28;20057;-58
2021/12/15 00:51:16;;;;;;;55.20;30.13;;;;;;;1.88;87.59;98437.47;10375981;28;20063;-58
2021/12/15 00:56:15;;;;;;;;;;;;;;;1.88;87.46;98434.03;10376188;28;20048;-58
2021/12/15 01:01:14;;;;;;;68.03;36.97;;;;;;;1.74;87.16;98418.94;10375764;28;20354;-58
2021/12/15 01:06:18;;;;;;;47.67;26.98;;;;;;;1.83;87.13;98428.69;10374791;28;20060;-58
2021/12/15 01:11:28;;;;;;;57.97;32.75;;;;;;;1.84;87.13;98430.47;10375074;28;20065;-58
2021/12/15 01:21:49;;;;;;;78.10;40.65;;;;;;;1.71;87.05;98418.78;10375537;28;20064;-58
2021/12/15 01:26:48;;;;;;;107.05;57.60;;;;;;;1.73;86.73;98427.41;10374400;28;20418;-58
2021/12/15 01:31:47;;;;;;;67.70;39.75;;;;;;;1.69;86.75;98425.56;10374552;28;20071;-58
2021/12/15 01:36:46;;;;;;;84.57;45.92;;;;;;;1.67;86.87;98422.03;10374471;28;20053;-58
2021/12/15 01:41:45;;;;;;;69.10;39.72;;;;;;;1.72;87.12;98423.13;10374122;28;20056;-58
2021/12/15 01:46:54;;;;;;;60.95;36.00;;;;;;;1.85;86.96;98426.22;10373489;28;20570;-58
2021/12/15 01:51:56;;;;;;;60.47;32.40;;;;;;;1.90;86.43;98412.84;10373821;28;20063;-58
2021/12/15 01:56:56;;;;;;;55.42;31.45;;;;;;;1.97;86.38;98411.38;10373383;28;20558;-58
2021/12/15 02:01:56;;;;;;;48.47;27.42;;;;;;;1.81;86.80;98416.66;10373109;28;20091;-58
2021/12/15 02:06:56;;;;;;;49.53;28.33;;;;;;;1.75;86.43;98409.59;10373307;28;20068;-58
2021/12/15 02:11:56;;;;;;;42.35;24.15;;;;;;;1.46;86.66;98421.97;10372963;28;20061;-58
2021/12/15 02:16:57;;;;;;;41.78;24.35;;;;;;;1.07;86.49;98367.31;10372724;28;20486;-58
2021/12/15 02:21:58;;;;;;;47.70;24.50;;;;;;;1.35;87.04;98402.69;10372863;28;20059;-58
2021/12/15 02:27:00;;;;;;;46.88;25.17;;;;;;;1.38;86.67;98402.81;10372728;28;20068;-58
2021/12/15 02:32:15;;;;;;;35.60;20.40;;;;;;;1.04;87.48;98405.53;10372570;28;20056;-58
2021/12/15 02:37:18;;;;;;;38.50;21.20;;;;;;;0.79;88.73;98409.44;10372579;28;20063;-58
2021/12/15 02:42:18;;;;;;;37.92;20.92;;;;;;;0.81;88.89;98412.97;10371091;28;20064;-58
2021/12/15 02:47:21;;;;;;;39.70;21.55;;;;;;;0.72;88.99;98414.19;10371734;28;20484;-58
2021/12/15 02:52:21;;;;;;;33.80;18.95;;;;;;;0.71;89.01;98410.78;10372434;28;20064;-58
2021/12/15 02:57:20;;;;;;;43.72;26.00;;;;;;;0.70;89.19;98419.22;10371600;28;20100;-58
2021/12/15 03:02:52;;;;;;;39.28;22.05;;;;;;;0.77;88.47;98397.41;10372043;28;20077;-58
2021/12/15 03:18:07;;;;;;;36.90;20.33;;;;;;;1.42;87.83;98404.72;10371503;28;20060;-58
2021/12/15 03:23:09;;;;;;;43.60;22.55;;;;;;;1.39;87.55;98414.81;10371511;28;20064;-58
2021/12/15 03:33:37;;;;;;;40.28;22.10;;;;;;;1.54;87.56;98414.63;10379492;28;20056;-58
2021/12/15 03:38:37;;;;;;;41.15;20.73;;;;;;;1.61;87.41;98414.09;10378546;28;20488;-58
2021/12/15 03:43:36;;;;;;;40.20;21.38;;;;;;;1.70;86.90;98422.19;10378772;28;20057;-58
2021/12/15 03:48:39;;;;;;;41.35;23.02;;;;;;;1.73;87.11;98421.44;10377601;28;20056;-58
2021/12/15 03:53:39;;;;;;;43.08;22.65;;;;;;;1.60;87.07;98422.59;10378213;28;20056;-58
2021/12/15 03:58:39;;;;;;;45.78;22.98;;;;;;;1.61;86.94;98420.91;10378377;28;20542;-58
2021/12/15 04:03:42;;;;;;;41.72;21.83;;;;;;;1.55;87.10;98426.59;10377270;28;20057;-58
2021/12/15 04:08:41;;;;;;;44.42;22.42;;;;;;;1.49;86.84;98422.09;10377778;28;20510;-58
2021/12/15 04:13:41;;;;;;;50.92;26.00;;;;;;;1.23;86.57;98430.25;10377948;28;20059;-58
2021/12/15 04:18:41;;;;;;;48.45;26.52;;;;;;;1.18;86.67;98435.16;10376607;28;20060;-58
2021/12/15 04:23:40;;;;;;;48.58;24.92;;;;;;;1.30;86.79;98438.28;10376123;28;20065;-58
2021/12/15 04:28:39;;;;;;;39.30;21.70;;;;;;;1.41;86.55;98425.09;10377122;28;20064;-58
2021/12/15 04:33:45;;;;;;;42.38;22.00;;;;;;;1.49;86.23;98434.88;10376751;28;20044;-58
2021/12/15 04:38:45;;;;;;;46.42;24.90;;;;;;;1.54;86.17;98437.63;10376236;28;20102;-58
2021/12/15 04:43:55;;;;;;;42.92;21.30;;;;;;;1.60;86.23;98449.81;10375407;28;20473;-58
2021/12/15 04:48:54;;;;;;;40.03;21.40;;;;;;;1.61;85.68;98455.03;10350417;28;20158;-58
2021/12/15 04:53:53;;;;;;;45.15;23.77;;;;;;;1.48;85.77;98461.28;10335111;28;20056;-58
2021/12/15 04:58:55;;;;;;;53.17;26.10;;;;;;;1.36;86.08;98458.13;10333326;28;20073;-58
2021/12/15 05:03:54;;;;;;;40.65;19.23;;;;;;;1.25;85.71;98459.31;10334422;28;20551;-58
2021/12/15 05:08:54;;;;;;;64.63;32.25;;;;;;;1.06;86.11;98461.00;10335102;28;20052;-58
2021/12/15 05:13:53;;;;;;;51.10;27.73;;;;;;;1.07;86.25;98470.41;10334752;28;20501;-58
2021/12/15 05:18:52;;;;;;;60.15;31.70;;;;;;;1.07;86.19;98452.53;10332300;28;20072;-58
2021/12/15 05:23:58;;;;;;;83.47;43.30;;;;;;;1.21;86.33;98470.22;10334091;28;20072;-58
2021/12/15 05:28:57;;;;;;;58.53;30.90;;;;;;;1.16;86.15;98469.13;10333869;28;20060;-58
2021/12/15 05:33:56;;;;;;;57.83;30.92;;;;;;;1.04;86.66;98466.84;10331957;28;20065;-59
2021/12/15 05:38:55;;;;;;;47.17;26.33;;;;;;;1.03;86.15;98477.88;10332248;28;20049;-58
2021/12/15 05:43:54;;;;;;;53.67;29.25;;;;;;;0.99;86.62;98478.50;10342137;28;20057;-58
2021/12/15 05:48:53;;;;;;;71.57;38.40;;;;;;;0.99;86.33;98478.50;10373839;28;20086;-58
2021/12/15 05:53:52;;;;;;;57.65;32.35;;;;;;;0.92;86.47;98477.38;10372728;28;20063;-58
2021/12/15 05:58:51;;;;;;;67.28;34.92;;;;;;;0.93;86.61;98476.56;10366617;28;20088;-58
2021/12/15 06:03:50;;;;;;;70.15;35.40;;;;;;;0.73;87.11;98477.25;10373566;28;20064;-58
2021/12/15 06:08:49;;;;;;;53.63;31.05;;;;;;;0.58;88.22;98478.25;10371505;28;20072;-58
2021/12/15 06:13:50;;;;;;;62.20;30.25;;;;;;;0.60;87.86;98494.53;10371061;28;20068;-58
2021/12/15 06:18:51;;;;;;;73.53;38.00;;;;;;;0.61;87.93;98491.16;10373283;28;20064;-58
2021/12/15 06:23:51;;;;;;;65.43;30.98;;;;;;;0.56;87.99;98484.94;10372317;28;20061;-58
2021/12/15 06:28:50;;;;;;;61.63;30.65;;;;;;;0.60;88.02;98488.56;10372336;28;20606;-58
2021/12/15 06:33:49;;;;;;;51.78;26.00;;;;;;;0.60;87.98;98493.66;10371746;28;20083;-58
2021/12/15 06:38:51;;;;;;;57.28;27.52;;;;;;;0.61;87.76;98497.94;10360728;28;20582;-58
2021/12/15 06:43:58;;;;;;;51.08;26.10;;;;;;;0.64;87.73;98505.78;10370188;28;20473;-58
2021/12/15 06:59:32;;;;;;;55.95;26.10;;;;;;;0.48;87.95;98530.53;10359255;28;20089;-58
2021/12/15 07:04:32;;;;;;;50.88;23.88;;;;;;;0.35;88.51;98528.16;10352916;28;20061;-58
2021/12/15 07:09:33;;;;;;;59.58;27.10;;;;;;;0.03;89.61;98513.72;10378579;28;20063;-58
2021/12/15 07:14:32;;;;;;;54.75;27.13;;;;;;;0.18;89.33;98540.03;10377847;28;20471;-58
2021/12/15 07:19:44;;;;;;;56.40;27.05;;;;;;;0.04;89.97;98552.06;10378976;28;20087;-58
2021/12/15 07:24:43;;;;;;;52.20;25.52;;;;;;;-0.01;89.95;98558.63;10379223;28;20166;-58
2021/12/15 07:29:42;;;;;;;62.47;28.50;;;;;;;0.02;90.03;98563.00;10375929;28;20052;-58
2021/12/15 07:34:41;;;;;;;65.82;29.17;;;;;;;0.04;90.40;98562.28;10375298;28;20095;-58
2021/12/15 07:39:47;;;;;;;70.95;34.63;;;;;;;0.11;90.45;98568.59;10375039;28;20582;-58
2021/12/15 07:44:46;;;;;;;68.75;32.58;;;;;;;0.03;90.71;98570.75;10376698;28;20119;-58
2021/12/15 07:49:45;;;;;;;71.45;36.30;;;;;;;-0.01;91.10;98575.59;10376674;28;20079;-58
2021/12/15 07:54:44;;;;;;;67.00;31.35;;;;;;;0.00;91.22;98573.13;10377708;28;20061;-58
2021/12/15 07:59:43;;;;;;;84.68;39.53;;;;;;;0.10;90.87;98586.38;10374304;28;20103;-58
2021/12/15 08:05:23;;;;;;;68.28;28.75;;;;;;;0.09;90.74;98584.63;10378279;28;20064;-58
2021/12/15 08:10:22;;;;;;;70.82;34.70;;;;;;;0.15;90.70;98592.63;10348907;28;20061;-58
2021/12/15 08:15:21;;;;;;;72.45;33.80;;;;;;;0.14;90.66;98589.16;10372120;28;20059;-58
2021/12/15 08:20:25;;;;;;;69.07;35.58;;;;;;;0.24;90.24;98580.31;10377611;28;20052;-58
2021/12/15 08:25:25;;;;;;;63.53;31.45;;;;;;;0.52;90.25;98597.09;10355572;28;20064;-58
2021/12/15 08:30:28;;;;;;;78.78;36.25;;;;;;;0.73;90.16;98597.31;10358446;28;20522;-58
2021/12/15 08:35:31;;;;;;;80.78;39.63;;;;;;;0.88;89.78;98601.53;10375170;28;20440;-58
2021/12/15 08:40:31;;;;;;;80.15;40.45;;;;;;;1.06;89.65;98606.69;10376039;28;20056;-58
2021/12/15 08:45:31;;;;;;;84.82;41.78;;;;;;;1.13;89.88;98594.19;10375860;28;20484;-58
2021/12/15 08:50:33;;;;;;;73.38;36.20;;;;;;;1.31;89.47;98603.66;10347508;28;20057;-58
2021/12/15 08:55:32;;;;;;;77.65;36.33;;;;;;;1.32;89.51;98595.19;10335593;28;20057;-58
2021/12/15 09:00:32;;;;;;;70.53;33.55;;;;;;;1.45;88.88;98604.31;10335169;28;20084;-58
2021/12/15 09:05:31;;;;;;;65.35;34.75;;;;;;;1.55;89.14;98595.41;10334518;28;20072;-58
2021/12/15 09:10:35;;;;;;;61.50;30.20;;;;;;;1.56;88.81;98598.88;10334281;28;20057;-58
2021/12/15 09:15:35;;;;;;;59.28;29.48;;;;;;;1.63;87.92;98593.25;10333152;28;20049;-58
2021/12/15 09:20:35;;;;;;;52.70;26.65;;;;;;;1.58;87.87;98603.25;10333647;28;20496;-58
2021/12/15 09:25:36;;;;;;;69.03;35.10;;;;;;;1.51;88.01;98606.31;10333026;28;20057;-58
2021/12/15 09:30:43;;;;;;;56.35;27.98;;;;;;;1.43;87.22;98610.19;10371878;28;20061;-58
2021/12/15 09:35:43;;;;;;;59.38;29.55;;;;;;;1.33;87.08;98616.53;10373742;28;20464;-58
2021/12/15 09:40:42;;;;;;;;;;;;;;;1.28;87.48;98606.06;10374557;28;20056;-58
2021/12/15 09:46:08;;;;;;;51.20;26.83;;;;;;;1.29;87.35;98596.72;10374985;28;19948;-58
2021/12/15 09:56:49;;;;;;;54.92;26.35;;;;;;;1.49;87.89;98595.13;10374289;28;20060;-58
2021/12/15 10:22:38;;;;;;;71.05;37.92;;;;;;;1.75;86.92;98574.22;10373369;28;20062;-58
2021/12/15 10:27:42;;;;;;;74.65;40.53;;;;;;;1.87;87.00;98575.59;10372634;28;20056;-58
2021/12/15 10:32:46;;;;;;;91.97;46.90;;;;;;;2.01;87.27;98559.19;10372850;28;20402;-58
2021/12/15 10:38:07;;;;;;;76.78;44.10;;;;;;;2.17;86.93;98561.63;10370938;28;20037;-58
2021/12/15 10:43:06;;;;;;;74.45;40.97;;;;;;;2.18;86.54;98554.81;10372651;28;20052;-58
2021/12/15 10:48:15;;;;;;;69.28;39.85;;;;;;;2.34;86.25;98551.25;10371993;28;20444;-58
2021/12/15 10:53:14;;;;;;;67.68;35.83;;;;;;;2.48;85.42;98550.19;10372265;28;20057;-58
2021/12/15 10:58:33;;;;;;;64.95;32.90;;;;;;;2.59;84.97;98546.41;10371936;28;20072;-58
2021/12/15 11:03:36;;;;;;;63.70;38.45;;;;;;;2.40;83.72;98546.41;10370444;28;20056;-58
2021/12/15 11:08:36;;;;;;;54.22;35.38;;;;;;;2.11;83.64;98556.25;10395576;28;20060;-58
2021/12/15 11:13:35;;;;;;;64.65;36.50;;;;;;;1.86;84.80;98548.25;10377103;28;20051;-58
2021/12/15 11:18:36;;;;;;;52.40;29.17;;;;;;;1.72;85.26;98538.25;10372071;28;20025;-58
2021/12/15 11:23:35;;;;;;;52.17;29.35;;;;;;;1.62;85.24;98551.44;10371486;28;20064;-58
2021/12/15 11:28:42;;;;;;;;;;;;;;;1.61;84.66;98548.81;10374307;28;20087;-58
2021/12/15 11:33:45;;;;;;;66.35;35.05;;;;;;;1.48;84.90;98545.66;10412544;28;19958;-59
2021/12/15 11:39:05;;;;;;;60.08;34.45;;;;;;;1.49;85.24;98543.97;10371838;28;20052;-58
2021/12/15 11:44:07;;;;;;;63.17;34.10;;;;;;;1.69;85.06;98527.91;10368867;28;20066;-59
2021/12/15 11:49:07;;;;;;;64.10;36.08;;;;;;;1.89;85.07;98535.59;10372116;28;20064;-58
2021/12/15 11:54:23;;;;;;;56.63;31.42;;;;;;;2.15;84.24;98516.28;10378632;28;20067;-58
2021/12/15 11:59:31;;;;;;;49.05;27.10;;;;;;;2.30;83.62;98518.63;10378294;28;20077;-58
2021/12/15 12:04:48;;;;;;;45.63;24.35;;;;;;;2.47;83.00;98501.47;10378242;28;20060;-58
2021/12/15 12:09:52;;;;;;;50.08;27.38;;;;;;;2.56;82.23;98492.47;10376068;28;20079;-58
2021/12/15 12:14:52;;;;;;;49.88;28.05;;;;;;;2.71;82.85;98481.13;10377943;28;20114;-58
2021/12/15 12:19:58;;;;;;;61.85;37.45;;;;;;;2.73;81.95;98505.13;10377564;28;20057;-58
2021/12/15 12:25:00;;;;;;;38.33;23.23;;;;;;;2.63;81.67;98487.59;10377436;28;20061;-58
2021/12/15 12:30:04;;;;;;;46.58;29.02;;;;;;;2.62;80.98;98480.72;10377356;28;20060;-58
2021/12/15 12:35:07;;;;;;;49.13;28.10;;;;;;;2.63;80.58;98497.84;10377202;28;20055;-58
2021/12/15 12:40:19;;;;;;;49.17;29.95;;;;;;;2.52;79.85;98500.84;10376926;28;20073;-58
2021/12/15 12:45:36;;;;;;;40.45;24.67;;;;;;;2.53;79.32;98523.06;10376984;28;20060;-58
2021/12/15 13:01:07;;;;;;;44.47;27.30;;;;;;;2.41;79.09;98527.66;10334343;28;20081;-58
2021/12/15 13:06:10;;;;;;;37.03;21.77;;;;;;;2.55;78.32;98534.25;10333058;28;20166;-58
2021/12/15 13:11:18;;;;;;;34.33;19.75;;;;;;;2.46;78.24;98526.19;10334772;28;20072;-59
2021/12/15 13:16:41;;;;;;;35.65;21.15;;;;;;;2.64;78.69;98523.53;10334430;28;20068;-58
2021/12/15 13:22:19;;;;;;;32.65;20.05;;;;;;;2.58;78.72;98536.97;10332605;28;20065;-58
2021/12/15 13:32:46;;;;;;;33.55;19.33;;;;;;;2.68;77.75;98547.63;10334010;28;20508;-58
2021/12/15 13:37:59;;;;;;;31.98;19.90;;;;;;;2.67;77.59;98539.03;10355946;28;20504;-58
2021/12/15 13:43:03;;;;;;;25.27;15.48;;;;;;;2.79;77.48;98531.88;10372442;28;20137;-58
2021/12/15 13:48:03;;;;;;;28.70;17.52;;;;;;;2.75;77.10;98544.50;10374294;28;20064;-58
2021/12/15 13:53:03;;;;;;;;;;;;;;;2.81;77.37;98542.19;10374289;28;20060;-58
2021/12/15 13:58:21;;;;;;;29.98;17.67;;;;;;;2.85;77.12;98544.06;10373877;28;20391;-58
2021/12/15 14:03:47;;;;;;;32.67;17.60;;;;;;;2.92;77.12;98533.25;10373838;28;20072;-58
2021/12/15 14:08:50;;;;;;;25.67;14.93;;;;;;;2.90;77.48;98529.75;10373314;28;20064;-58
2021/12/15 14:14:01;;;;;;;23.10;13.45;;;;;;;2.99;76.84;98542.09;10372970;28;20064;-58
2021/12/15 14:19:06;;;;;;;45.08;28.27;;;;;;;2.97;74.93;98544.56;10373327;28;20064;-58
2021/12/15 14:24:06;;;;;;;55.85;35.80;;;;;;;2.63;76.62;98552.56;10371039;28;20068;-58
2021/12/15 14:29:10;;;;;;;42.70;26.42;;;;;;;2.59;77.46;98563.47;10372824;28;20500;-58
2021/12/15 14:34:12;;;;;;;54.40;29.15;;;;;;;2.48;77.97;98560.44;10372769;28;20060;-58
2021/12/15 14:39:16;;;;;;;50.15;26.88;;;;;;;2.18;79.18;98554.81;10372838;28;20817;-58
2021/12/15 14:44:21;;;;;;;52.92;31.23;;;;;;;2.26;79.97;98568.84;10372308;28;20080;-58
2021/12/15 14:49:23;;;;;;;64.45;35.15;;;;;;;2.32;79.76;98578.47;10372467;28;20064;-58
2021/12/15 14:54:24;;;;;;;60.92;34.03;;;;;;;2.32;79.52;98579.34;10372071;28;20060;-58
2021/12/15 14:59:31;;;;;;;53.63;32.13;;;;;;;2.30;79.72;98557.06;10371976;28;20083;-58
2021/12/15 15:04:30;;;;;;;59.92;34.55;;;;;;;2.42;79.88;98566.97;10371901;28;20083;-58
2021/12/15 15:09:33;;;;;;;58.08;35.58;;;;;;;2.46;80.07;98572.28;10370890;28;20076;-58
2021/12/15 15:14:47;;;;;;;59.50;35.63;;;;;;;2.47;80.35;98574.06;10372375;28;20070;-58
2021/12/15 15:19:52;;;;;;;70.55;44.78;;;;;;;2.48;80.37;98578.34;10371950;28;20502;-59
2021/12/15 15:24:54;;;;;;;96.10;55.25;;;;;;;2.46;80.19;98577.41;10372595;28;20076;-58
2021/12/15 15:29:57;;;;;;;114.38;65.88;;;;;;;2.34;80.75;98582.00;10378129;28;20068;-58
2021/12/15 15:35:00;;;;;;;115.03;67.65;;;;;;;2.28;81.32;98581.75;10379327;28;20060;-58
2021/12/15 15:40:12;;;;;;;75.50;46.20;;;;;;;2.19;80.94;98583.88;10378352;28;20064;-58
2021/12/15 15:45:29;;;;;;;72.93;42.65;;;;;;;2.10;81.22;98589.47;10379361;28;20067;-58
2021/12/15 15:50:30;;;;;;;82.25;43.63;;;;;;;2.03;81.59;98575.50;10379074;28;20064;-58
2021/12/15 15:55:29;;;;;;;67.25;38.78;;;;;;;2.08;81.71;98589.38;10379326;28;20052;-58
2021/12/15 16:00:30;;;;;;;;;;;;;;;2.03;81.48;98585.72;10378661;28;20084;-58
2021/12/15 16:05:29;;;;;;;108.00;61.80;;;;;;;1.99;82.28;98588.94;10378742;28;19956;-58
2021/12/15 16:10:31;;;;;;;105.55;62.97;;;;;;;1.98;82.61;98591.47;10377102;28;20415;-58
2021/12/15 16:15:35;;;;;;;97.07;58.53;;;;;;;1.97;82.33;98585.44;10372294;28;20056;-58
2021/12/15 16:21:10;;;;;;;96.55;61.08;;;;;;;1.90;82.41;98583.41;10375104;28;20103;-62
2021/12/15 16:26:10;;;;;;;92.40;55.85;;;;;;;1.93;82.17;98592.13;10376983;28;20064;-58
2021/12/15 16:31:11;;;;;;;58.65;35.03;;;;;;;1.98;82.12;98589.78;10377755;28;20071;-58
2021/12/15 16:36:11;;;;;;;51.00;29.55;;;;;;;1.97;82.16;98585.44;10376680;28;20056;-58
2021/12/15 16:41:22;;;;;;;57.83;34.08;;;;;;;2.06;81.85;98583.31;10376693;28;20108;-58
2021/12/15 16:46:43;;;;;;;40.22;24.23;;;;;;;2.16;82.35;98579.47;10376096;28;20067;-58
2021/12/15 16:51:54;;;;;;;49.85;27.83;;;;;;;2.24;81.81;98590.97;10374889;28;20526;-58
2021/12/15 16:56:56;;;;;;;55.65;31.73;;;;;;;2.29;81.81;98588.59;10376277;28;20057;-58
2021/12/15 17:01:59;;;;;;;58.65;34.88;;;;;;;2.32;81.67;98593.84;10366293;28;20081;-58
2021/12/15 17:07:02;;;;;;;144.20;83.93;;;;;;;2.28;81.48;98592.00;10373933;28;20076;-58
2021/12/15 17:12:12;;;;;;;74.10;43.20;;;;;;;2.23;81.97;98599.47;10375669;28;20064;-58
2021/12/15 17:17:11;;;;;;;;;;;;;;;2.21;81.63;98601.06;10375025;28;20060;-58
2021/12/15 17:22:13;;;;;;;140.97;84.30;;;;;;;2.20;81.87;98593.31;10375334;28;19963;-58
2021/12/15 17:27:12;;;;;;;116.78;67.60;;;;;;;2.23;81.67;98591.78;10374838;28;20068;-58
2021/12/15 17:32:13;;;;;;;61.72;37.50;;;;;;;2.27;81.83;98601.31;10369136;28;20064;-58
2021/12/15 17:37:17;;;;;;;90.20;57.17;;;;;;;2.25;81.93;98592.69;10374012;28;20061;-58
2021/12/15 17:42:29;;;;;;;65.43;38.70;;;;;;;2.25;82.52;98597.81;10373487;28;20068;-58
2021/12/15 17:47:36;;;;;;;61.83;36.15;;;;;;;2.26;82.36;98602.16;10373395;28;20071;-58
2021/12/15 17:52:46;;;;;;;71.28;43.17;;;;;;;2.29;82.45;98601.41;10374379;28;20513;-58
2021/12/15 17:57:56;;;;;;;98.03;54.15;;;;;;;2.26;82.13;98608.97;10372336;28;20115;-58
2021/12/15 18:02:57;;;;;;;95.30;54.42;;;;;;;2.02;82.91;98606.13;10369026;28;20063;-58
2021/12/15 18:07:57;;;;;;;83.68;49.72;;;;;;;1.92;83.07;98612.50;10372933;28;20064;-58
2021/12/15 18:12:56;;;;;;;64.88;38.97;;;;;;;1.91;83.49;98598.84;10372950;28;20065;-58
2021/12/15 18:17:56;;;;;;;70.10;41.15;;;;;;;1.91;83.24;98614.19;10372844;28;20067;-58
2021/12/15 18:22:56;;;;;;;76.20;47.90;;;;;;;1.92;83.20;98605.69;10373189;28;20065;-58
2021/12/15 18:27:59;;;;;;;93.65;56.40;;;;;;;1.98;83.29;98607.69;10371771;28;20068;-58
2021/12/15 18:32:59;;;;;;;74.35;45.90;;;;;;;1.91;83.35;98611.63;10372270;28;20067;-58
2021/12/15 18:37:58;;;;;;;75.05;44.03;;;;;;;2.00;83.05;98606.09;10372578;28;20064;-58
2021/12/15 18:42:57;;;;;;;;;;;;;;;2.04;83.33;98597.72;10372521;28;20060;-58
2021/12/15 18:47:56;;;;;;;93.63;52.70;;;;;;;1.98;83.28;98606.81;10370536;28;19920;-58
2021/12/15 18:52:55;;;;;;;80.90;46.75;;;;;;;1.93;83.65;98604.91;10372783;28;20399;-58
2021/12/15 18:57:54;;;;;;;73.38;40.70;;;;;;;1.93;83.40;98610.03;10371012;28;20095;-58
2021/12/15 19:02:54;;;;;;;72.07;41.25;;;;;;;1.96;83.42;98614.41;10379440;28;20064;-58
2021/12/15 19:07:53;;;;;;;;;;;;;;;1.91;83.54;98610.78;10380569;28;20084;-58
2021/12/15 19:12:55;;;;;;;87.75;48.70;;;;;;;1.91;83.17;98613.34;10379780;28;19915;-58
2021/12/15 19:17:55;;;;;;;165.43;89.43;;;;;;;1.75;83.90;98612.59;10379947;28;20060;-58
2021/12/15 19:22:55;;;;;;;98.18;59.45;;;;;;;1.63;84.55;98606.91;10379533;28;20480;-58
2021/12/15 19:27:54;;;;;;;95.93;53.00;;;;;;;1.66;84.87;98624.06;10379628;28;20068;-58
2021/12/15 19:32:53;;;;;;;84.22;48.03;;;;;;;1.75;84.17;98610.03;10378864;28;20083;-58
2021/12/15 19:37:53;;;;;;;73.78;42.88;;;;;;;1.86;84.02;98612.25;10379234;28;20079;-58
2021/12/15 19:42:52;;;;;;;79.05;46.67;;;;;;;1.95;84.32;98620.34;10377976;28;20063;-58
2021/12/15 19:47:51;;;;;;;74.50;47.20;;;;;;;1.99;84.02;98613.69;10377744;28;20061;-58
2021/12/15 19:52:53;;;;;;;79.85;46.13;;;;;;;1.99;83.84;98617.09;10376451;28;20523;-58
2021/12/15 19:57:52;;;;;;;93.40;54.03;;;;;;;1.87;84.56;98609.72;10378025;28;20081;-58
2021/12/15 20:02:51;;;;;;;106.47;64.88;;;;;;;1.83;84.64;98605.28;10377454;28;20118;-58
2021/12/15 20:07:50;;;;;;;100.80;62.55;;;;;;;1.70;84.81;98633.66;10377329;28;20558;-59
2021/12/15 20:12:55;;;;;;;74.95;44.95;;;;;;;1.46;85.29;98623.13;10336471;28;20146;-58
2021/12/15 20:17:55;;;;;;;67.47;39.33;;;;;;;1.39;86.10;98634.75;10336913;28;20064;-58
2021/12/15 20:22:55;;;;;;;70.47;42.05;;;;;;;1.38;86.23;98637.22;10376187;28;20076;-58
2021/12/15 20:27:55;;;;;;;103.75;57.03;;;;;;;1.46;85.94;98631.69;10393010;28;20076;-58
2021/12/15 20:32:57;;;;;;;70.55;41.85;;;;;;;1.61;85.64;98639.22;10376970;28;20462;-57
2021/12/15 20:37:56;;;;;;;65.35;37.80;;;;;;;1.73;85.55;98641.47;10377294;28;20476;-56
2021/12/15 20:42:55;;;;;;;;;;;;;;;1.82;85.24;98647.03;10376305;28;20098;-56
2021/12/15 20:47:55;;;;;;;66.95;36.30;;;;;;;1.92;85.35;98640.66;10376088;28;19956;-56
2021/12/15 20:52:55;;;;;;;64.00;35.78;;;;;;;1.96;85.04;98655.38;10376351;28;20072;-56
2021/12/15 20:57:54;;;;;;;60.17;32.80;;;;;;;1.98;85.36;98656.31;10376332;28;20489;-57
2021/12/15 21:02:53;;;;;;;68.55;36.70;;;;;;;1.96;84.78;98651.13;10375217;28;20460;-58
2021/12/15 21:07:57;;;;;;;61.30;34.50;;;;;;;1.92;84.84;98658.59;10375848;28;20531;-57
2021/12/15 21:12:56;;;;;;;56.47;30.55;;;;;;;1.79;84.67;98644.34;10375181;28;20063;-57
2021/12/15 21:17:55;;;;;;;73.47;43.10;;;;;;;1.92;84.62;98668.81;10373307;28;20102;-57
2021/12/15 21:22:57;;;;;;;71.28;36.58;;;;;;;1.94;84.53;98667.22;10374247;28;20075;-57
2021/12/15 21:27:57;;;;;;;71.78;38.58;;;;;;;1.88;84.53;98666.91;10375262;28;20072;-57
2021/12/15 21:32:57;;;;;;;70.75;38.60;;;;;;;1.74;84.63;98649.25;10389780;28;20364;-57
2021/12/15 21:37:57;;;;;;;93.80;54.60;;;;;;;1.83;84.43;98665.81;10374645;28;20056;-57
2021/12/15 21:42:58;;;;;;;74.47;43.45;;;;;;;1.86;84.58;98666.00;10369617;28;20067;-57
2021/12/15 21:47:58;;;;;;;77.28;42.90;;;;;;;1.83;84.33;98663.25;10374082;28;20061;-57
2021/12/15 21:52:58;;;;;;;78.43;42.13;;;;;;;1.81;84.49;98664.88;10373679;28;20060;-57
2021/12/15 21:57:59;;;;;;;70.15;38.95;;;;;;;1.84;84.19;98662.47;10373507;28;20076;-57
2021/12/15 22:03:01;;;;;;;72.47;39.45;;;;;;;1.86;84.46;98658.31;10373815;28;20068;-57
2021/12/15 22:08:00;;;;;;;82.30;46.80;;;;;;;1.85;84.27;98659.09;10373073;28;20523;-57
2021/12/15 22:13:01;;;;;;;98.93;54.83;;;;;;;1.82;84.23;98662.38;10369705;28;20063;-57
2021/12/15 22:18:02;;;;;;;117.07;67.68;;;;;;;1.78;84.08;98665.59;10372712;28;20060;-57
2021/12/15 22:23:02;;;;;;;116.35;64.55;;;;;;;1.76;84.07;98662.09;10372684;28;20060;-57
2021/12/15 22:28:02;;;;;;;119.18;69.95;;;;;;;1.74;83.95;98662.03;10372581;28;20071;-57
2021/12/15 22:33:05;;;;;;;119.55;68.90;;;;;;;1.74;83.57;98663.72;10373318;28;20064;-57
2021/12/15 22:38:10;;;;;;;127.45;71.15;;;;;;;1.73;84.29;98656.81;10372275;28;20056;-57
2021/12/15 22:43:09;;;;;;;131.00;73.60;;;;;;;1.74;84.24;98663.72;10371906;28;20460;-57
2021/12/15 22:48:09;;;;;;;136.80;76.28;;;;;;;1.72;84.27;98655.97;10366171;28;20083;-57
2021/12/15 22:53:08;;;;;;;149.15;87.45;;;;;;;1.70;84.11;98662.69;10371535;28;20068;-57
2021/12/15 22:58:07;;;;;;;139.10;79.50;;;;;;;1.55;84.48;98651.69;10372132;28;20085;-57
2021/12/15 23:03:07;;;;;;;123.55;67.07;;;;;;;1.49;84.48;98666.75;10370266;28;20065;-57
2021/12/15 23:08:09;;;;;;;112.18;62.53;;;;;;;1.44;85.13;98663.09;10370919;28;20068;-57
2021/12/15 23:13:08;;;;;;;127.10;67.28;;;;;;;1.41;85.10;98658.72;10369919;28;20068;-57
2021/12/15 23:18:10;;;;;;;116.78;65.50;;;;;;;1.41;85.19;98662.91;10365092;28;20606;-57
2021/12/15 23:23:09;;;;;;;112.03;58.67;;;;;;;1.42;84.84;98659.59;10369754;28;20068;-57
2021/12/15 23:28:29;;;;;;;107.80;58.95;;;;;;;1.48;84.79;98670.09;10370064;28;20122;-57
2021/12/15 23:33:28;;;;;;;108.90;59.33;;;;;;;1.41;85.16;98651.03;10371192;28;20061;-57
2021/12/15 23:38:51;;;;;;;111.38;59.13;;;;;;;1.47;85.08;98659.00;10371188;28;20496;-57
2021/12/15 23:54:45;;;;;;;121.55;63.78;;;;;;;1.47;84.70;98646.19;10359108;28;20069;-57
